createdAt,value
2018-06-14T00:00:58.873Z,14.47
2018-06-14T00:01:59.073Z,14.54
2018-06-14T00:02:59.284Z,14.51
2018-06-14T00:03:59.496Z,14.47
2018-06-14T00:04:59.686Z,14.54
2018-06-14T00:07:31.985Z,14.45
2018-06-14T00:08:32.158Z,14.40
2018-06-14T00:09:32.353Z,14.47
2018-06-14T00:10:32.567Z,14.43
2018-06-14T00:11:32.764Z,14.50
2018-06-14T00:12:32.955Z,14.47
2018-06-14T00:13:33.147Z,14.50
2018-06-14T00:14:33.353Z,14.52
2018-06-14T00:15:33.575Z,14.36
2018-06-14T00:16:33.766Z,14.36
2018-06-14T00:17:33.951Z,14.45
2018-06-14T00:18:34.160Z,14.45
2018-06-14T00:19:34.352Z,14.57
2018-06-14T00:20:34.565Z,14.51
2018-06-14T00:21:34.772Z,14.46
2018-06-14T00:22:35.038Z,14.46
2018-06-14T00:23:35.100Z,14.43
2018-06-14T00:24:35.284Z,14.42
2018-06-14T00:25:35.491Z,14.40
2018-06-14T00:26:35.677Z,14.33
2018-06-14T00:27:35.883Z,14.39
2018-06-14T00:28:36.087Z,14.46
2018-06-14T00:29:36.289Z,14.51
2018-06-14T00:30:36.497Z,14.36
2018-06-14T00:31:36.710Z,14.42
2018-06-14T00:32:36.925Z,14.45
2018-06-14T00:33:37.240Z,14.45
2018-06-14T00:34:37.326Z,14.35
2018-06-14T00:35:37.518Z,14.27
2018-06-14T00:36:37.702Z,14.32
2018-06-14T00:37:37.905Z,14.32
2018-06-14T00:38:38.103Z,14.29
2018-06-14T00:39:38.292Z,14.42
2018-06-14T00:40:38.494Z,14.40
2018-06-14T00:41:38.704Z,14.35
2018-06-14T00:42:38.889Z,14.35
2018-06-14T00:43:39.100Z,14.21
2018-06-14T00:44:39.314Z,14.33
2018-06-14T00:45:39.523Z,14.25
2018-06-14T00:46:39.735Z,14.24
2018-06-14T00:47:39.954Z,14.20
2018-06-14T00:48:40.145Z,14.17
2018-06-14T00:49:40.342Z,14.17
2018-06-14T00:50:40.535Z,14.21
2018-06-14T00:51:40.748Z,14.18
2018-06-14T00:52:40.949Z,14.27
2018-06-14T00:53:41.133Z,14.18
2018-06-14T00:54:41.331Z,14.25
2018-06-14T00:55:41.519Z,14.28
2018-06-14T00:56:41.727Z,14.15
2018-06-14T00:57:41.933Z,14.14
2018-06-14T00:58:42.142Z,14.29
2018-06-14T00:59:42.325Z,14.21
2018-06-14T01:00:42.513Z,14.20
2018-06-14T01:01:42.721Z,14.12
2018-06-14T01:02:42.935Z,14.18
2018-06-14T01:03:43.134Z,14.27
2018-06-14T01:04:43.348Z,14.22
2018-06-14T01:05:43.550Z,14.20
2018-06-14T01:06:43.739Z,14.14
2018-06-14T01:07:43.949Z,14.10
2018-06-14T01:08:44.152Z,14.17
2018-06-14T01:09:44.367Z,14.18
2018-06-14T01:10:44.570Z,14.18
2018-06-14T01:11:44.779Z,14.24
2018-06-14T01:12:44.970Z,14.28
2018-06-14T01:13:45.164Z,14.24
2018-06-14T01:14:45.374Z,14.21
2018-06-14T01:15:45.571Z,14.24
2018-06-14T01:16:45.769Z,14.22
2018-06-14T01:17:45.979Z,14.15
2018-06-14T01:18:46.171Z,14.15
2018-06-14T01:19:46.379Z,14.18
2018-06-14T01:20:46.591Z,14.20
2018-06-14T01:21:46.777Z,14.21
2018-06-14T01:22:46.965Z,14.15
2018-06-14T01:23:47.174Z,14.12
2018-06-14T01:24:47.358Z,14.22
2018-06-14T01:25:47.567Z,14.17
2018-06-14T01:26:47.774Z,14.14
2018-06-14T01:27:47.965Z,14.06
2018-06-14T01:28:48.184Z,14.15
2018-06-14T01:29:48.393Z,14.20
2018-06-14T01:30:48.600Z,14.22
2018-06-14T01:31:48.786Z,14.20
2018-06-14T01:32:48.989Z,14.20
2018-06-14T01:33:49.209Z,14.18
2018-06-14T01:34:49.416Z,14.24
2018-06-14T01:35:49.618Z,14.17
2018-06-14T01:36:49.804Z,14.15
2018-06-14T01:37:49.984Z,14.20
2018-06-14T01:38:50.186Z,14.22
2018-06-14T01:39:50.394Z,14.17
2018-06-14T01:40:50.595Z,14.21
2018-06-14T01:41:50.799Z,14.21
2018-06-14T01:42:50.993Z,14.24
2018-06-14T01:43:51.204Z,14.21
2018-06-14T01:44:51.387Z,14.20
2018-06-14T01:45:51.573Z,14.12
2018-06-14T01:46:51.764Z,14.15
2018-06-14T01:47:51.978Z,14.10
2018-06-14T01:48:52.160Z,14.12
2018-06-14T01:49:52.349Z,14.12
2018-06-14T01:50:52.534Z,14.06
2018-06-14T01:51:52.731Z,14.07
2018-06-14T01:52:52.938Z,14.09
2018-06-14T01:53:53.123Z,14.15
2018-06-14T01:54:53.338Z,14.06
2018-06-14T01:55:53.541Z,14.02
2018-06-14T01:56:53.731Z,13.95
2018-06-14T01:57:53.937Z,13.97
2018-06-14T01:58:54.146Z,14.03
2018-06-14T01:59:54.334Z,13.99
2018-06-14T02:00:54.525Z,14.02
2018-06-14T02:03:26.650Z,14.04
2018-06-14T02:04:26.823Z,14.00
2018-06-14T02:05:27.005Z,14.03
2018-06-14T02:06:27.338Z,13.95
2018-06-14T02:07:27.419Z,14.04
2018-06-14T02:08:27.604Z,13.92
2018-06-14T02:09:27.787Z,14.02
2018-06-14T02:10:27.972Z,13.84
2018-06-14T02:11:28.156Z,13.97
2018-06-14T02:12:28.352Z,13.88
2018-06-14T02:13:28.556Z,13.78
2018-06-14T02:14:28.754Z,13.81
2018-06-14T02:15:28.950Z,13.69
2018-06-14T02:18:01.220Z,13.75
2018-06-14T02:19:01.398Z,13.69
2018-06-14T02:20:01.615Z,13.69
2018-06-14T02:21:01.805Z,13.75
2018-06-14T02:22:02.009Z,13.70
2018-06-14T02:23:02.195Z,13.67
2018-06-14T02:24:02.385Z,13.69
2018-06-14T02:25:02.612Z,13.71
2018-06-14T02:26:02.824Z,13.64
2018-06-14T02:27:03.035Z,13.55
2018-06-14T02:28:03.243Z,13.63
2018-06-14T02:29:03.431Z,13.57
2018-06-14T02:30:03.637Z,13.59
2018-06-14T02:32:35.718Z,13.60
2018-06-14T02:33:35.890Z,13.62
2018-06-14T02:36:08.154Z,13.59
2018-06-14T02:37:08.323Z,13.62
2018-06-14T02:38:08.533Z,13.59
2018-06-14T02:39:08.736Z,13.49
2018-06-14T02:40:08.942Z,13.55
2018-06-14T02:41:09.144Z,13.55
2018-06-14T02:42:09.349Z,13.41
2018-06-14T02:43:09.543Z,13.46
2018-06-14T02:44:09.727Z,13.33
2018-06-14T02:45:09.913Z,13.32
2018-06-14T02:46:10.118Z,13.36
2018-06-14T02:47:10.308Z,13.26
2018-06-14T02:48:10.495Z,13.23
2018-06-14T02:49:10.685Z,13.23
2018-06-14T02:50:10.909Z,13.17
2018-06-14T02:51:11.095Z,13.14
2018-06-14T02:52:11.299Z,13.15
2018-06-14T02:53:11.504Z,13.08
2018-06-14T02:54:11.714Z,13.00
2018-06-14T02:55:11.903Z,13.00
2018-06-14T02:56:12.107Z,12.79
2018-06-14T02:57:12.319Z,12.87
2018-06-14T02:58:12.525Z,12.77
2018-06-14T02:59:12.708Z,12.70
2018-06-14T03:00:12.908Z,12.57
2018-06-14T03:01:13.095Z,12.59
2018-06-14T03:02:13.296Z,12.56
2018-06-14T03:03:13.492Z,12.47
2018-06-14T03:04:13.708Z,12.46
2018-06-14T03:05:13.887Z,12.41
2018-06-14T03:06:14.095Z,12.32
2018-06-14T03:07:14.299Z,12.32
2018-06-14T03:08:14.500Z,12.28
2018-06-14T03:09:14.711Z,12.28
2018-06-14T03:10:14.912Z,12.23
2018-06-14T03:11:15.129Z,12.24
2018-06-14T03:12:15.372Z,12.16
2018-06-14T03:13:15.585Z,12.24
2018-06-14T03:14:15.776Z,12.17
2018-06-14T03:15:15.966Z,12.17
2018-06-14T03:16:16.164Z,12.20
2018-06-14T03:17:16.372Z,12.27
2018-06-14T03:18:16.589Z,12.13
2018-06-14T03:19:16.788Z,12.19
2018-06-14T03:20:16.975Z,12.23
2018-06-14T03:21:17.189Z,12.20
2018-06-14T03:22:17.371Z,12.19
2018-06-14T03:23:17.558Z,12.27
2018-06-14T03:24:17.755Z,12.17
2018-06-14T03:25:17.941Z,12.27
2018-06-14T03:26:18.144Z,12.29
2018-06-14T03:27:18.332Z,12.31
2018-06-14T03:28:18.534Z,12.47
2018-06-14T03:29:18.721Z,12.37
2018-06-14T03:30:18.985Z,12.39
2018-06-14T03:31:19.061Z,12.39
2018-06-14T03:32:19.263Z,12.42
2018-06-14T03:33:19.455Z,12.46
2018-06-14T03:34:19.672Z,12.49
2018-06-14T03:36:51.781Z,12.21
2018-06-14T03:37:51.952Z,12.32
2018-06-14T03:38:52.153Z,12.35
2018-06-14T03:39:52.371Z,12.42
2018-06-14T03:40:52.616Z,12.41
2018-06-14T03:41:52.754Z,12.42
2018-06-14T03:42:52.945Z,12.59
2018-06-14T03:43:53.161Z,12.65
2018-06-14T03:44:53.337Z,12.64
2018-06-14T03:45:53.526Z,12.67
2018-06-14T03:46:53.714Z,12.70
2018-06-14T03:47:53.904Z,12.70
2018-06-14T03:48:54.118Z,12.74
2018-06-14T03:49:54.324Z,12.75
2018-06-14T03:50:54.536Z,12.83
2018-06-14T03:51:54.772Z,12.85
2018-06-14T03:52:54.923Z,12.79
2018-06-14T03:53:55.125Z,12.87
2018-06-14T03:54:55.328Z,12.96
2018-06-14T03:55:55.525Z,13.00
2018-06-14T03:56:55.703Z,13.07
2018-06-14T03:57:55.910Z,13.00
2018-06-14T03:58:56.097Z,13.00
2018-06-14T03:59:56.304Z,12.97
2018-06-14T04:00:56.515Z,13.07
2018-06-14T04:01:56.712Z,13.03
2018-06-14T04:02:56.924Z,13.03
2018-06-14T04:03:57.129Z,12.97
2018-06-14T04:04:57.410Z,12.95
2018-06-14T04:05:57.493Z,12.97
2018-06-14T04:06:57.704Z,13.00
2018-06-14T04:07:57.903Z,13.01
2018-06-14T04:08:58.113Z,13.11
2018-06-14T04:09:58.292Z,13.19
2018-06-14T04:10:58.474Z,13.25
2018-06-14T04:11:58.663Z,13.26
2018-06-14T04:12:58.875Z,13.22
2018-06-14T04:13:59.067Z,13.20
2018-06-14T04:14:59.260Z,13.23
2018-06-14T04:15:59.454Z,13.15
2018-06-14T04:18:32.390Z,13.17
2018-06-14T04:19:31.882Z,13.23
2018-06-14T04:20:32.135Z,13.30
2018-06-14T04:21:32.288Z,13.38
2018-06-14T04:22:32.493Z,13.57
2018-06-14T04:23:32.695Z,13.69
2018-06-14T04:24:32.879Z,13.82
2018-06-14T04:25:33.088Z,14.02
2018-06-14T04:26:33.308Z,14.07
2018-06-14T04:27:33.544Z,14.32
2018-06-14T04:28:33.697Z,14.25
2018-06-14T04:29:33.881Z,14.24
2018-06-14T04:30:34.075Z,14.54
2018-06-14T04:31:34.281Z,15.02
2018-06-14T04:32:34.464Z,15.32
2018-06-14T04:33:34.671Z,15.62
2018-06-14T04:34:34.877Z,16.68
2018-06-14T04:35:35.085Z,17.37
2018-06-14T04:36:35.430Z,17.90
2018-06-14T04:37:35.500Z,18.27
2018-06-14T04:38:35.708Z,18.57
2018-06-14T04:39:35.916Z,18.55
2018-06-14T04:40:36.116Z,18.82
2018-06-14T04:41:36.311Z,19.07
2018-06-14T04:42:36.522Z,19.13
2018-06-14T04:43:36.731Z,19.87
2018-06-14T04:44:36.944Z,20.31
2018-06-14T04:45:37.148Z,20.32
2018-06-14T04:46:37.360Z,19.48
2018-06-14T04:49:09.526Z,18.36
2018-06-14T04:50:09.704Z,18.88
2018-06-14T04:51:09.890Z,19.39
2018-06-14T04:53:41.989Z,20.05
2018-06-14T04:54:42.165Z,20.54
2018-06-14T04:55:42.375Z,19.69
2018-06-14T04:56:42.588Z,19.47
2018-06-14T04:57:42.785Z,19.14
2018-06-14T04:58:43.002Z,19.37
2018-06-14T04:59:43.198Z,19.31
2018-06-14T05:00:43.410Z,19.58
2018-06-14T05:01:43.610Z,19.48
2018-06-14T05:02:43.817Z,19.47
2018-06-14T05:03:44.034Z,19.28
2018-06-14T05:04:44.233Z,19.55
2018-06-14T05:05:44.425Z,19.87
2018-06-14T05:06:44.641Z,19.81
2018-06-14T05:07:44.858Z,20.80
2018-06-14T05:08:45.092Z,21.50
2018-06-14T05:09:45.287Z,21.86
2018-06-14T05:10:45.499Z,21.96
2018-06-14T05:11:45.717Z,22.12
2018-06-14T05:12:45.904Z,21.40
2018-06-14T05:13:46.124Z,21.07
2018-06-14T05:14:46.278Z,20.88
2018-06-14T05:15:46.487Z,20.18
2018-06-14T05:16:46.678Z,19.74
2018-06-14T05:17:46.916Z,19.43
2018-06-14T05:18:47.130Z,19.56
2018-06-14T05:19:47.348Z,20.47
2018-06-14T05:20:47.537Z,21.29
2018-06-14T05:21:47.733Z,21.84
2018-06-14T05:22:47.943Z,22.21
2018-06-14T05:23:48.164Z,21.80
2018-06-14T05:24:48.360Z,22.42
2018-06-14T05:25:48.556Z,22.91
2018-06-14T05:26:48.775Z,22.14
2018-06-14T05:27:48.986Z,22.18
2018-06-14T05:28:49.190Z,22.31
2018-06-14T05:29:49.408Z,22.51
2018-06-14T05:30:49.601Z,22.51
2018-06-14T05:31:49.816Z,22.46
2018-06-14T05:32:50.032Z,21.96
2018-06-14T05:33:50.240Z,21.58
2018-06-14T05:34:50.457Z,22.47
2018-06-14T05:35:50.655Z,22.72
2018-06-14T05:36:50.848Z,22.98
2018-06-14T05:37:51.063Z,22.88
2018-06-14T05:38:51.263Z,23.15
2018-06-14T05:39:51.480Z,22.98
2018-06-14T05:40:51.674Z,22.54
2018-06-14T05:41:51.892Z,22.15
2018-06-14T05:42:52.082Z,21.84
2018-06-14T05:43:52.281Z,21.83
2018-06-14T05:44:52.503Z,21.35
2018-06-14T05:45:52.703Z,22.03
2018-06-14T05:46:52.898Z,22.27
2018-06-14T05:47:53.259Z,22.22
2018-06-14T05:48:53.300Z,22.42
2018-06-14T05:49:53.492Z,22.06
2018-06-14T05:50:53.706Z,21.77
2018-06-14T05:51:53.898Z,22.02
2018-06-14T05:52:54.109Z,22.20
2018-06-14T05:53:54.320Z,22.20
2018-06-14T05:54:54.514Z,22.22
2018-06-14T05:55:54.702Z,22.36
2018-06-14T05:56:54.893Z,22.42
2018-06-14T05:57:55.098Z,22.49
2018-06-14T05:58:55.291Z,22.33
2018-06-14T05:59:55.503Z,22.46
2018-06-14T06:00:55.705Z,21.44
2018-06-14T06:01:55.920Z,21.90
2018-06-14T06:02:56.118Z,22.21
2018-06-14T06:03:56.327Z,22.27
2018-06-14T06:04:56.520Z,22.37
2018-06-14T06:05:56.753Z,22.88
2018-06-14T06:06:56.946Z,23.17
2018-06-14T06:07:57.172Z,23.27
2018-06-14T06:08:57.406Z,24.31
2018-06-14T06:09:57.604Z,24.34
2018-06-14T06:10:57.863Z,24.15
2018-06-14T06:11:58.098Z,23.70
2018-06-14T06:12:58.276Z,23.23
2018-06-14T06:13:58.483Z,22.86
2018-06-14T06:14:58.675Z,23.10
2018-06-14T06:15:58.867Z,23.22
2018-06-14T06:16:59.056Z,23.58
2018-06-14T06:17:59.276Z,23.31
2018-06-14T06:18:59.492Z,24.03
2018-06-14T06:19:59.687Z,24.78
2018-06-14T06:20:59.918Z,24.47
2018-06-14T06:22:00.124Z,24.22
2018-06-14T06:23:00.317Z,24.50
2018-06-14T06:24:00.545Z,24.65
2018-06-14T06:25:00.782Z,24.10
2018-06-14T06:26:01.011Z,23.95
2018-06-14T06:27:01.208Z,24.46
2018-06-14T06:28:01.424Z,24.08
2018-06-14T06:29:01.646Z,24.32
2018-06-14T06:30:01.841Z,24.18
2018-06-14T06:31:02.062Z,23.78
2018-06-14T06:32:02.283Z,23.61
2018-06-14T06:33:02.506Z,24.39
2018-06-14T06:34:02.709Z,24.31
2018-06-14T06:35:02.916Z,23.85
2018-06-14T06:36:03.145Z,23.02
2018-06-14T06:37:03.339Z,22.70
2018-06-14T06:38:03.559Z,23.57
2018-06-14T06:39:03.744Z,24.25
2018-06-14T06:41:35.856Z,24.05
2018-06-14T06:42:36.038Z,23.76
2018-06-14T06:43:36.245Z,23.91
2018-06-14T06:44:36.440Z,24.21
2018-06-14T06:45:36.632Z,24.06
2018-06-14T06:46:36.846Z,24.10
2018-06-14T06:47:37.063Z,24.16
2018-06-14T06:48:37.286Z,24.32
2018-06-14T06:49:37.487Z,24.32
2018-06-14T06:50:37.702Z,25.09
2018-06-14T06:51:37.915Z,25.33
2018-06-14T06:52:38.117Z,25.72
2018-06-14T06:53:38.311Z,25.73
2018-06-14T06:54:38.538Z,25.55
2018-06-14T06:55:38.737Z,25.20
2018-06-14T06:56:38.961Z,25.21
2018-06-14T06:57:39.157Z,24.93
2018-06-14T06:58:39.393Z,25.06
2018-06-14T06:59:39.585Z,25.28
2018-06-14T07:00:39.794Z,24.80
2018-06-14T07:01:40.025Z,24.58
2018-06-14T07:02:40.228Z,24.81
2018-06-14T07:03:40.435Z,25.42
2018-06-14T07:04:40.635Z,25.55
2018-06-14T07:05:40.828Z,25.55
2018-06-14T07:06:41.044Z,24.49
2018-06-14T07:07:41.267Z,24.39
2018-06-14T07:08:41.527Z,24.78
2018-06-14T07:09:41.618Z,25.69
2018-06-14T07:10:41.836Z,26.02
2018-06-14T07:11:42.034Z,26.88
2018-06-14T07:12:42.257Z,27.04
2018-06-14T07:13:42.457Z,26.70
2018-06-14T07:14:42.666Z,26.81
2018-06-14T07:15:42.886Z,26.51
2018-06-14T07:16:43.099Z,26.23
2018-06-14T07:17:43.316Z,26.20
2018-06-14T07:18:43.522Z,25.87
2018-06-14T07:19:43.740Z,25.23
2018-06-14T07:20:43.960Z,25.38
2018-06-14T07:21:44.218Z,25.54
2018-06-14T07:22:44.362Z,25.76
2018-06-14T07:23:44.583Z,25.99
2018-06-14T07:24:44.780Z,25.88
2018-06-14T07:25:44.989Z,26.06
2018-06-14T07:26:45.204Z,25.73
2018-06-14T07:27:45.503Z,25.60
2018-06-14T07:28:45.547Z,26.18
2018-06-14T07:29:45.756Z,25.82
2018-06-14T07:30:45.955Z,25.61
2018-06-14T07:31:46.175Z,25.69
2018-06-14T07:32:46.366Z,25.91
2018-06-14T07:35:18.539Z,25.32
2018-06-14T07:36:18.721Z,25.20
2018-06-14T07:37:18.946Z,25.72
2018-06-14T07:38:19.150Z,25.92
2018-06-14T07:39:19.341Z,25.73
2018-06-14T07:40:19.551Z,25.90
2018-06-14T07:41:19.764Z,25.82
2018-06-14T07:42:19.967Z,25.58
2018-06-14T07:43:20.166Z,25.17
2018-06-14T07:44:20.367Z,25.54
2018-06-14T07:45:20.587Z,24.45
2018-06-14T07:46:20.789Z,24.16
2018-06-14T07:47:20.997Z,24.16
2018-06-14T07:48:21.216Z,24.21
2018-06-14T07:49:21.434Z,24.52
2018-06-14T07:50:21.646Z,24.09
2018-06-14T07:51:21.867Z,22.35
2018-06-14T07:52:22.108Z,22.07
2018-06-14T07:53:22.315Z,21.82
2018-06-14T07:54:22.528Z,21.21
2018-06-14T07:55:22.755Z,20.77
2018-06-14T07:56:23.115Z,20.33
2018-06-14T07:57:23.184Z,20.32
2018-06-14T07:58:23.406Z,20.16
2018-06-14T07:59:23.612Z,20.05
2018-06-14T08:00:23.822Z,21.07
2018-06-14T08:01:24.047Z,21.37
2018-06-14T08:02:24.249Z,22.05
2018-06-14T08:03:24.456Z,22.07
2018-06-14T08:04:24.654Z,21.53
2018-06-14T08:05:24.870Z,21.06
2018-06-14T08:06:25.106Z,21.10
2018-06-14T08:07:25.273Z,21.42
2018-06-14T08:08:25.491Z,21.06
2018-06-14T08:09:25.702Z,20.80
2018-06-14T08:10:25.920Z,20.36
2018-06-14T08:11:26.125Z,20.52
2018-06-14T08:12:26.352Z,20.79
2018-06-14T08:13:26.528Z,20.77
2018-06-14T08:14:26.735Z,20.82
2018-06-14T08:15:26.945Z,21.49
2018-06-14T08:16:27.137Z,22.25
2018-06-14T08:17:27.329Z,23.20
2018-06-14T08:18:27.533Z,24.09
2018-06-14T08:19:27.740Z,24.78
2018-06-14T08:20:27.961Z,24.81
2018-06-14T08:21:28.180Z,25.10
2018-06-14T08:22:28.429Z,25.43
2018-06-14T08:23:28.649Z,26.09
2018-06-14T08:24:28.877Z,26.43
2018-06-14T08:25:29.083Z,26.44
2018-06-14T08:26:29.285Z,26.81
2018-06-14T08:27:29.499Z,26.29
2018-06-14T08:28:29.720Z,25.61
2018-06-14T08:29:29.925Z,25.06
2018-06-14T08:30:30.145Z,24.93
2018-06-14T08:31:30.359Z,25.14
2018-06-14T08:32:30.579Z,25.83
2018-06-14T08:33:30.777Z,26.72
2018-06-14T08:34:30.998Z,27.13
2018-06-14T08:35:31.203Z,27.29
2018-06-14T08:36:31.424Z,27.04
2018-06-14T08:37:31.619Z,26.89
2018-06-14T08:38:31.835Z,26.17
2018-06-14T08:39:32.060Z,26.10
2018-06-14T08:40:32.252Z,25.50
2018-06-14T08:41:32.453Z,26.02
2018-06-14T08:42:32.659Z,26.80
2018-06-14T08:43:32.856Z,27.44
2018-06-14T08:44:33.041Z,26.37
2018-06-14T08:45:33.247Z,26.39
2018-06-14T08:46:33.454Z,26.33
2018-06-14T08:47:33.675Z,26.36
2018-06-14T08:50:05.789Z,26.87
2018-06-14T08:51:05.973Z,26.45
2018-06-14T08:52:06.176Z,26.62
2018-06-14T08:53:06.386Z,24.88
2018-06-14T08:54:06.607Z,24.05
2018-06-14T08:55:06.822Z,23.20
2018-06-14T08:56:07.027Z,22.60
2018-06-14T08:57:07.228Z,22.09
2018-06-14T08:58:07.420Z,22.24
2018-06-14T08:59:07.612Z,22.22
2018-06-14T09:00:07.832Z,22.90
2018-06-14T09:01:08.049Z,22.70
2018-06-14T09:02:08.240Z,23.55
2018-06-14T09:03:08.433Z,24.45
2018-06-14T09:04:08.624Z,25.14
2018-06-14T09:05:08.840Z,25.17
2018-06-14T09:06:09.101Z,25.97
2018-06-14T09:07:09.297Z,24.87
2018-06-14T09:09:41.426Z,23.63
2018-06-14T09:10:41.603Z,23.15
2018-06-14T09:11:41.836Z,23.01
2018-06-14T09:12:42.051Z,22.62
2018-06-14T09:13:42.268Z,22.35
2018-06-14T09:14:42.487Z,22.20
2018-06-14T09:15:42.672Z,21.96
2018-06-14T09:16:42.878Z,22.17
2018-06-14T09:17:43.096Z,22.49
2018-06-14T09:18:43.304Z,22.37
2018-06-14T09:19:43.519Z,22.18
2018-06-14T09:20:43.733Z,23.05
2018-06-14T09:21:43.929Z,24.27
2018-06-14T09:22:44.127Z,23.83
2018-06-14T09:23:44.335Z,23.79
2018-06-14T09:24:44.538Z,23.53
2018-06-14T09:25:44.751Z,23.19
2018-06-14T09:26:44.960Z,22.27
2018-06-14T09:27:45.166Z,21.94
2018-06-14T09:28:45.366Z,21.80
2018-06-14T09:29:45.568Z,21.80
2018-06-14T09:30:45.762Z,21.77
2018-06-14T09:31:45.954Z,21.77
2018-06-14T09:32:46.167Z,21.75
2018-06-14T09:33:46.385Z,21.38
2018-06-14T09:34:46.593Z,21.32
2018-06-14T09:35:46.833Z,21.28
2018-06-14T09:36:47.031Z,21.52
2018-06-14T09:39:18.866Z,22.06
2018-06-14T09:40:19.041Z,22.28
2018-06-14T09:41:19.254Z,22.22
2018-06-14T09:43:51.395Z,21.49
2018-06-14T09:44:51.568Z,21.32
2018-06-14T09:45:51.762Z,21.72
2018-06-14T09:46:51.950Z,21.90
2018-06-14T09:47:52.166Z,21.91
2018-06-14T09:48:52.380Z,22.05
2018-06-14T09:49:52.595Z,21.98
2018-06-14T09:52:24.712Z,21.82
2018-06-14T09:53:24.893Z,21.49
2018-06-14T09:54:25.105Z,21.98
2018-06-14T09:55:25.322Z,21.59
2018-06-14T09:56:25.541Z,21.90
2018-06-14T09:57:25.758Z,22.17
2018-06-14T09:58:25.947Z,22.47
2018-06-14T09:59:26.150Z,23.55
2018-06-14T10:00:26.433Z,24.47
2018-06-14T10:01:26.577Z,24.16
2018-06-14T10:02:26.784Z,24.77
2018-06-14T10:03:26.985Z,25.43
2018-06-14T10:04:27.174Z,25.52
2018-06-14T10:05:27.387Z,25.79
2018-06-14T10:06:27.584Z,25.03
2018-06-14T10:07:27.803Z,24.64
2018-06-14T10:08:28.018Z,23.91
2018-06-14T10:09:28.218Z,24.03
2018-06-14T10:10:28.430Z,24.21
2018-06-14T10:11:28.652Z,23.63
2018-06-14T10:12:28.831Z,23.05
2018-06-14T10:13:29.022Z,22.82
2018-06-14T10:14:29.231Z,22.54
2018-06-14T10:15:29.442Z,22.25
2018-06-14T10:16:29.635Z,22.15
2018-06-14T10:17:29.843Z,22.22
2018-06-14T10:20:02.184Z,22.57
2018-06-14T10:21:02.322Z,22.85
2018-06-14T10:22:02.548Z,22.72
2018-06-14T10:23:02.739Z,22.82
2018-06-14T10:24:02.946Z,22.75
2018-06-14T10:25:03.145Z,22.47
2018-06-14T10:26:03.339Z,22.22
2018-06-14T10:27:03.535Z,22.33
2018-06-14T10:28:03.726Z,22.75
2018-06-14T10:29:03.938Z,22.73
2018-06-14T10:30:04.144Z,22.45
2018-06-14T10:31:04.357Z,22.43
2018-06-14T10:32:04.552Z,22.12
2018-06-14T10:33:04.774Z,22.20
2018-06-14T10:34:04.989Z,22.33
2018-06-14T10:35:05.215Z,22.40
2018-06-14T10:36:05.395Z,22.58
2018-06-14T10:37:05.614Z,22.51
2018-06-14T10:38:05.815Z,22.37
2018-06-14T10:39:06.023Z,22.46
2018-06-14T10:40:06.245Z,22.43
2018-06-14T10:41:06.467Z,22.37
2018-06-14T10:42:06.664Z,22.70
2018-06-14T10:43:06.864Z,22.43
2018-06-14T10:45:38.980Z,22.18
2018-06-14T10:46:39.159Z,22.05
2018-06-14T10:47:39.357Z,22.33
2018-06-14T10:48:39.550Z,22.58
2018-06-14T10:49:39.752Z,22.75
2018-06-14T10:50:39.966Z,23.05
2018-06-14T10:51:40.178Z,23.02
2018-06-14T10:52:40.371Z,22.98
2018-06-14T10:53:40.578Z,23.47
2018-06-14T10:54:40.797Z,23.60
2018-06-14T10:55:41.018Z,23.16
2018-06-14T10:56:41.211Z,22.90
2018-06-14T10:57:41.425Z,22.83
2018-06-14T10:58:41.648Z,22.95
2018-06-14T10:59:41.844Z,22.90
2018-06-14T11:00:42.058Z,23.32
2018-06-14T11:01:42.254Z,23.80
2018-06-14T11:02:42.455Z,23.02
2018-06-14T11:03:42.666Z,23.47
2018-06-14T11:04:42.884Z,23.48
2018-06-14T11:07:14.997Z,23.23
2018-06-14T11:08:15.175Z,23.20
2018-06-14T11:09:15.375Z,22.77
2018-06-14T11:10:15.577Z,22.60
2018-06-14T11:11:15.784Z,22.58
2018-06-14T11:12:16.019Z,22.40
2018-06-14T11:13:16.232Z,22.60
2018-06-14T11:14:16.409Z,23.23
2018-06-14T11:15:16.664Z,23.88
2018-06-14T11:16:16.804Z,24.12
2018-06-14T11:17:17.000Z,24.32
2018-06-14T11:18:17.216Z,24.30
2018-06-14T11:19:17.420Z,24.32
2018-06-14T11:20:17.689Z,24.40
2018-06-14T11:21:17.839Z,24.28
2018-06-14T11:22:18.054Z,24.10
2018-06-14T11:23:18.270Z,23.76
2018-06-14T11:24:18.467Z,23.73
2018-06-14T11:25:18.677Z,23.72
2018-06-14T11:26:18.875Z,23.31
2018-06-14T11:27:19.091Z,23.16
2018-06-14T11:28:19.306Z,22.92
2018-06-14T11:29:19.502Z,23.36
2018-06-14T11:30:19.697Z,23.57
2018-06-14T11:31:19.913Z,23.46
2018-06-14T11:32:20.112Z,23.35
2018-06-14T11:33:20.309Z,22.94
2018-06-14T11:34:20.524Z,22.70
2018-06-14T11:35:20.716Z,22.62
2018-06-14T11:36:20.928Z,23.16
2018-06-14T11:37:21.142Z,23.16
2018-06-14T11:38:21.330Z,23.07
2018-06-14T11:39:21.525Z,23.01
2018-06-14T11:40:21.728Z,23.28
2018-06-14T11:41:21.928Z,23.22
2018-06-14T11:42:22.126Z,23.22
2018-06-14T11:43:22.330Z,23.47
2018-06-14T11:44:22.531Z,23.16
2018-06-14T11:45:22.720Z,23.13
2018-06-14T11:46:22.988Z,23.50
2018-06-14T11:48:55.154Z,23.61
2018-06-14T11:49:55.336Z,23.61
2018-06-14T11:50:55.531Z,23.69
2018-06-14T11:51:55.740Z,23.50
2018-06-14T11:52:55.944Z,23.48
2018-06-14T11:53:56.174Z,23.63
2018-06-14T11:54:56.387Z,23.54
2018-06-14T11:55:56.597Z,23.57
2018-06-14T11:56:56.798Z,23.76
2018-06-14T11:57:57.013Z,23.75
2018-06-14T11:58:57.225Z,23.66
2018-06-14T12:01:29.389Z,24.05
2018-06-14T12:02:29.569Z,24.24
2018-06-14T12:03:29.773Z,24.18
2018-06-14T12:04:29.968Z,24.12
2018-06-14T12:05:30.182Z,24.05
2018-06-14T12:06:30.396Z,24.15
2018-06-14T12:07:30.612Z,24.16
2018-06-14T12:08:30.828Z,24.18
2018-06-14T12:09:31.023Z,24.30
2018-06-14T12:10:31.268Z,24.35
2018-06-14T12:11:31.456Z,24.31
2018-06-14T12:12:31.665Z,24.12
2018-06-14T12:13:31.853Z,24.09
2018-06-14T12:14:32.067Z,23.79
2018-06-14T12:15:32.276Z,22.94
2018-06-14T12:16:32.498Z,22.95
2018-06-14T12:17:32.725Z,22.95
2018-06-14T12:18:32.931Z,22.68
2018-06-14T12:19:33.143Z,22.88
2018-06-14T12:20:33.352Z,22.98
2018-06-14T12:21:33.631Z,23.00
2018-06-14T12:22:33.722Z,23.12
2018-06-14T12:23:33.918Z,23.28
2018-06-14T12:24:34.128Z,23.57
2018-06-14T12:25:34.329Z,23.90
2018-06-14T12:26:34.525Z,23.66
2018-06-14T12:27:34.716Z,24.06
2018-06-14T12:28:34.930Z,24.18
2018-06-14T12:29:35.159Z,24.16
2018-06-14T12:32:07.281Z,24.27
2018-06-14T12:33:07.476Z,24.57
2018-06-14T12:34:07.665Z,24.25
2018-06-14T12:35:07.881Z,24.16
2018-06-14T12:36:08.092Z,23.68
2018-06-14T12:37:08.291Z,23.04
2018-06-14T12:38:08.500Z,23.10
2018-06-14T12:39:08.727Z,22.98
2018-06-14T12:40:08.920Z,22.55
2018-06-14T12:41:09.129Z,22.31
2018-06-14T12:42:09.341Z,22.35
2018-06-14T12:43:09.540Z,22.42
2018-06-14T12:44:09.757Z,21.96
2018-06-14T12:45:09.961Z,22.12
2018-06-14T12:46:10.163Z,22.18
2018-06-14T12:47:10.377Z,22.49
2018-06-14T12:48:10.576Z,22.79
2018-06-14T12:49:10.802Z,23.15
2018-06-14T12:50:11.094Z,23.20
2018-06-14T12:51:11.176Z,23.23
2018-06-14T12:52:11.389Z,23.35
2018-06-14T12:53:11.590Z,23.50
2018-06-14T12:54:11.793Z,23.04
2018-06-14T12:55:11.989Z,23.02
2018-06-14T12:56:12.188Z,22.79
2018-06-14T12:57:12.379Z,22.82
2018-06-14T12:58:12.582Z,22.49
2018-06-14T12:59:12.792Z,22.35
2018-06-14T13:01:44.924Z,22.79
2018-06-14T13:02:45.107Z,22.86
2018-06-14T13:03:45.302Z,22.65
2018-06-14T13:04:45.523Z,22.33
2018-06-14T13:05:45.749Z,22.54
2018-06-14T13:06:45.936Z,22.27
2018-06-14T13:07:46.125Z,22.33
2018-06-14T13:08:46.360Z,22.14
2018-06-14T13:09:46.591Z,22.31
2018-06-14T13:12:18.414Z,22.79
2018-06-14T13:13:18.590Z,22.98
2018-06-14T13:14:18.806Z,22.95
2018-06-14T13:15:19.029Z,22.62
2018-06-14T13:16:19.207Z,22.43
2018-06-14T13:17:19.408Z,22.49
2018-06-14T13:18:19.626Z,22.43
2018-06-14T13:19:19.815Z,22.03
2018-06-14T13:20:20.015Z,21.94
2018-06-14T13:21:20.212Z,21.90
2018-06-14T13:22:20.406Z,21.90
2018-06-14T13:23:20.603Z,21.82
2018-06-14T13:24:20.803Z,21.71
2018-06-14T13:25:21.012Z,21.80
2018-06-14T13:26:21.208Z,21.88
2018-06-14T13:27:21.438Z,21.75
2018-06-14T13:28:21.665Z,21.54
2018-06-14T13:29:21.876Z,21.38
2018-06-14T13:30:22.082Z,21.38
2018-06-14T13:31:22.290Z,21.58
2018-06-14T13:32:22.507Z,21.99